Time;durP1;ratioP1;P1;durP2;ratioP2;P2;SDS_P1;SDS_P2;PMS_P1;PMS_P2;Temp;Humidity;BMP_temperature;BMP_pressure;BME280_temperature;BME280_humidity;BME280_pressure;Samples;Min_cycle;Max_cycle;Signal;HPM_P1;HPM_P2
2020/12/31 00:00:06;;;;;;;5.20;4.60;;;6.70;99.90;;;;;;4990357;28;20486;-79
2020/12/31 00:02:33;;;;;;;5.80;4.77;;;6.60;99.90;;;;;;4990230;28;20479;-77
2020/12/31 00:05:00;;;;;;;7.17;5.00;;;6.70;99.90;;;;;;4990734;28;20474;-78
2020/12/31 00:07:29;;;;;;;6.07;5.40;;;6.70;99.90;;;;;;4989605;28;21070;-79
2020/12/31 00:09:55;;;;;;;4.90;4.40;;;6.70;99.90;;;;;;4990209;28;21995;-79
2020/12/31 00:12:23;;;;;;;4.90;3.87;;;6.60;99.90;;;;;;4988007;28;20485;-80
2020/12/31 00:14:49;;;;;;;6.30;3.77;;;6.60;99.90;;;;;;4994667;28;20465;-80
2020/12/31 00:17:16;;;;;;;5.27;4.77;;;6.60;99.90;;;;;;4988091;28;20459;-79
2020/12/31 00:19:42;;;;;;;5.90;5.30;;;6.60;99.90;;;;;;4988431;28;20469;-79
2020/12/31 00:22:08;;;;;;;7.30;5.60;;;6.70;99.90;;;;;;4985010;28;21277;-80
2020/12/31 00:24:37;;;;;;;5.40;4.50;;;6.70;99.90;;;;;;4976526;28;20848;-80
2020/12/31 00:27:04;;;;;;;6.13;5.43;;;6.60;99.90;;;;;;4979505;28;20821;-80
2020/12/31 00:29:42;;;;;;;7.20;4.97;;;6.60;99.90;;;;;;4978614;28;20943;-79
2020/12/31 00:32:09;;;;;;;7.90;4.63;;;6.50;99.90;;;;;;4978517;28;20486;-81
2020/12/31 00:34:35;;;;;;;7.90;4.70;;;6.60;99.90;;;;;;4982115;28;20501;-81
2020/12/31 00:37:04;;;;;;;8.67;5.60;;;6.50;99.90;;;;;;4980498;28;20451;-82
2020/12/31 00:39:41;;;;;;;6.67;4.80;;;6.50;99.90;;;;;;4982431;28;20483;-79
2020/12/31 00:42:15;;;;;;;9.20;6.30;;;6.40;99.90;;;;;;4980972;28;20553;-82
2020/12/31 00:44:42;;;;;;;6.90;5.03;;;6.50;99.90;;;;;;4980163;28;20451;-79
2020/12/31 00:47:08;;;;;;;6.10;5.50;;;6.50;99.90;;;;;;4982308;28;20458;-80
2020/12/31 00:49:34;;;;;;;5.93;4.77;;;6.30;99.90;;;;;;4981805;28;20451;-81
2020/12/31 00:52:00;;;;;;;5.47;4.87;;;6.50;99.90;;;;;;4986222;28;20483;-79
2020/12/31 00:54:28;;;;;;;5.13;4.43;;;6.60;99.90;;;;;;4988848;28;20471;-80
2020/12/31 00:56:54;;;;;;;9.33;6.07;;;6.60;99.90;;;;;;4986039;28;20471;-81
2020/12/31 00:59:20;;;;;;;8.00;5.10;;;6.60;99.90;;;;;;4985133;28;20904;-80
2020/12/31 01:01:47;;;;;;;6.67;5.13;;;6.60;99.90;;;;;;4999317;28;21012;-81
2020/12/31 01:04:13;;;;;;;5.47;4.80;;;6.60;99.90;;;;;;4979764;28;20455;-80
2020/12/31 01:06:39;;;;;;;7.50;5.23;;;6.60;99.90;;;;;;4984564;28;21169;-81
2020/12/31 01:09:07;;;;;;;7.13;5.20;;;6.60;99.90;;;;;;4985282;28;20446;-79
2020/12/31 01:11:38;;;;;;;5.80;5.03;;;6.60;99.90;;;;;;4984070;28;20469;-81
2020/12/31 01:14:05;;;;;;;7.00;5.17;;;6.50;99.90;;;;;;4986054;28;20455;-79
2020/12/31 01:16:32;;;;;;;5.10;4.60;;;6.50;99.90;;;;;;4988023;28;20889;-80
2020/12/31 01:18:58;;;;;;;5.73;5.07;;;6.40;99.90;;;;;;4983817;28;20458;-80
2020/12/31 01:21:24;;;;;;;5.80;4.53;;;6.30;99.90;;;;;;4982503;28;20558;-82
2020/12/31 01:23:50;;;;;;;6.57;5.43;;;6.50;99.90;;;;;;4982915;28;20455;-80
2020/12/31 01:26:30;;;;;;;5.90;5.30;;;6.60;99.90;;;;;;4984150;28;20451;-81
2020/12/31 01:28:56;;;;;;;7.47;6.20;;;6.60;99.90;;;;;;4984565;28;20447;-81
2020/12/31 01:31:22;;;;;;;7.30;5.67;;;6.70;99.90;;;;;;4982923;28;20456;-80
2020/12/31 01:33:48;;;;;;;5.27;4.57;;;6.80;99.90;;;;;;4982728;28;20455;-82
2020/12/31 01:36:15;;;;;;;4.93;4.43;;;6.60;99.90;;;;;;4984156;28;20458;-80
2020/12/31 01:38:41;;;;;;;6.07;5.47;;;6.50;99.90;;;;;;4983955;28;20841;-82
2020/12/31 01:41:07;;;;;;;5.60;4.83;;;6.40;99.90;;;;;;4983745;28;20462;-78
2020/12/31 01:43:33;;;;;;;7.30;5.07;;;6.60;99.90;;;;;;4980388;28;20475;-79
2020/12/31 01:45:59;;;;;;;5.13;4.63;;;6.80;99.90;;;;;;4981830;28;20463;-78
2020/12/31 01:48:26;;;;;;;5.80;4.90;;;6.80;99.90;;;;;;4986017;28;20459;-78
2020/12/31 01:50:53;;;;;;;5.90;5.30;;;6.80;99.90;;;;;;4988966;28;20523;-80
2020/12/31 01:53:21;;;;;;;5.17;4.60;;;6.80;99.90;;;;;;4983290;28;20478;-80
2020/12/31 01:55:48;;;;;;;8.20;5.50;;;6.90;99.90;;;;;;4999799;28;20468;-80
2020/12/31 01:58:14;;;;;;;6.33;4.93;;;6.80;99.90;;;;;;4989004;28;20463;-79
2020/12/31 02:00:40;;;;;;;6.60;5.20;;;6.80;99.90;;;;;;4986768;28;20447;-77
2020/12/31 02:03:07;;;;;;;6.20;4.97;;;6.80;99.90;;;;;;4986548;28;20974;-80
2020/12/31 02:05:33;;;;;;;5.43;4.33;;;6.80;99.90;;;;;;4987308;28;20455;-77
2020/12/31 02:07:59;;;;;;;4.70;4.00;;;6.80;99.90;;;;;;4987162;28;21197;-80
2020/12/31 02:10:26;;;;;;;5.97;4.80;;;6.70;99.90;;;;;;4985907;28;20899;-80
2020/12/31 02:12:52;;;;;;;4.43;4.00;;;7.00;99.90;;;;;;4987481;28;20577;-80
2020/12/31 02:15:18;;;;;;;6.87;5.73;;;7.00;99.90;;;;;;4986972;28;20461;-81
2020/12/31 02:17:45;;;;;;;4.50;4.10;;;6.90;99.90;;;;;;4986470;28;20897;-81
2020/12/31 02:20:14;;;;;;;7.47;5.17;;;6.90;99.90;;;;;;4986049;28;20451;-80
2020/12/31 02:22:40;;;;;;;4.60;4.20;;;6.90;99.90;;;;;;4985699;28;20609;-78
2020/12/31 02:25:07;;;;;;;4.53;3.77;;;6.90;99.90;;;;;;4984016;28;21065;-78
2020/12/31 02:27:33;;;;;;;6.03;5.00;;;6.90;99.90;;;;;;4984480;28;20455;-79
2020/12/31 02:29:59;;;;;;;4.87;4.07;;;6.90;99.90;;;;;;4986879;28;21024;-79
2020/12/31 02:32:25;;;;;;;6.70;4.70;;;6.90;99.90;;;;;;4986858;28;20472;-81
2020/12/31 02:34:51;;;;;;;5.03;4.40;;;6.80;99.90;;;;;;4985039;28;20482;-82
2020/12/31 02:37:17;;;;;;;5.27;4.70;;;6.80;99.90;;;;;;4985761;28;20526;-82
2020/12/31 02:39:44;;;;;;;9.30;4.17;;;6.90;99.90;;;;;;4985890;28;20462;-81
2020/12/31 02:42:10;;;;;;;5.27;4.30;;;6.80;99.90;;;;;;4988193;28;20478;-80
2020/12/31 02:44:36;;;;;;;5.40;4.70;;;6.70;99.90;;;;;;4987256;28;20458;-82
2020/12/31 02:47:02;;;;;;;5.17;3.97;;;6.40;99.90;;;;;;4986161;28;20467;-79
2020/12/31 02:49:28;;;;;;;5.27;4.47;;;6.50;99.90;;;;;;4990686;28;20475;-80
2020/12/31 02:51:54;;;;;;;4.93;4.33;;;6.60;99.90;;;;;;4992492;28;20840;-78
2020/12/31 02:54:20;;;;;;;4.70;4.20;;;6.60;99.90;;;;;;4990976;28;20461;-80
2020/12/31 02:56:46;;;;;;;6.60;4.70;;;6.50;99.90;;;;;;4990860;28;20541;-79
2020/12/31 02:59:13;;;;;;;4.83;4.30;;;6.60;99.90;;;;;;4992067;28;21633;-78
2020/12/31 03:01:39;;;;;;;5.93;4.70;;;6.70;99.90;;;;;;4990461;28;20994;-78
2020/12/31 03:04:05;;;;;;;5.83;5.23;;;6.60;99.90;;;;;;4990064;28;20907;-80
2020/12/31 03:06:31;;;;;;;5.33;4.40;;;6.50;99.90;;;;;;4986654;28;20988;-79
2020/12/31 03:08:57;;;;;;;5.60;4.50;;;6.60;99.90;;;;;;4985955;28;20460;-82
2020/12/31 03:11:25;;;;;;;5.70;5.10;;;6.50;99.90;;;;;;4985586;28;20458;-80
2020/12/31 03:13:52;;;;;;;7.57;5.00;;;6.50;99.90;;;;;;4987485;28;20813;-80
2020/12/31 03:16:19;;;;;;;4.17;3.70;;;6.60;99.90;;;;;;4985042;28;20470;-79
2020/12/31 03:18:46;;;;;;;4.87;4.40;;;6.60;99.90;;;;;;4984989;28;20547;-78
2020/12/31 03:21:13;;;;;;;3.93;3.60;;;6.60;99.90;;;;;;4984156;28;20501;-80
2020/12/31 03:23:39;;;;;;;10.50;4.50;;;6.50;99.90;;;;;;4987331;28;20479;-80
2020/12/31 03:26:06;;;;;;;4.80;4.00;;;6.50;99.90;;;;;;4986527;28;20539;-80
2020/12/31 03:28:32;;;;;;;5.20;4.27;;;6.60;99.90;;;;;;4986269;28;20451;-79
2020/12/31 03:30:58;;;;;;;4.90;4.40;;;6.60;99.90;;;;;;4985023;28;20451;-79
2020/12/31 03:33:24;;;;;;;9.40;3.90;;;6.60;99.90;;;;;;4985986;28;20845;-81
2020/12/31 03:35:51;;;;;;;5.93;4.53;;;6.50;99.90;;;;;;4992663;28;20471;-78
2020/12/31 03:38:19;;;;;;;8.00;5.20;;;6.60;99.90;;;;;;4985197;28;20452;-81
2020/12/31 03:40:45;;;;;;;6.13;4.90;;;6.50;99.90;;;;;;4983057;28;20451;-80
2020/12/31 03:43:12;;;;;;;5.10;4.60;;;6.60;99.90;;;;;;4985379;28;20578;-80
2020/12/31 03:45:40;;;;;;;6.27;5.13;;;6.50;99.90;;;;;;4983277;28;20478;-79
2020/12/31 03:48:07;;;;;;;6.27;5.10;;;6.50;99.90;;;;;;4983970;28;20444;-82
2020/12/31 03:50:34;;;;;;;6.37;4.80;;;6.40;99.90;;;;;;4985316;28;20443;-81
2020/12/31 03:53:00;;;;;;;9.00;4.67;;;6.40;99.90;;;;;;4986003;28;20533;-82
2020/12/31 03:55:26;;;;;;;7.50;4.87;;;6.40;99.90;;;;;;4984576;28;20462;-79
2020/12/31 03:57:52;;;;;;;5.10;4.37;;;6.60;99.90;;;;;;4985967;28;20459;-82
2020/12/31 04:00:18;;;;;;;6.20;4.83;;;6.60;99.90;;;;;;4985948;28;20451;-80
2020/12/31 04:02:45;;;;;;;5.40;4.30;;;6.60;99.90;;;;;;4984654;28;20494;-77
2020/12/31 04:05:11;;;;;;;7.50;5.03;;;6.50;99.90;;;;;;4984790;28;20474;-81
2020/12/31 04:07:37;;;;;;;5.70;4.13;;;6.50;99.90;;;;;;4984837;28;20467;-79
2020/12/31 04:10:04;;;;;;;4.63;4.20;;;6.50;99.90;;;;;;4985270;28;20455;-81
2020/12/31 04:12:31;;;;;;;5.40;3.90;;;6.50;99.90;;;;;;4985726;28;20483;-82
2020/12/31 04:14:57;;;;;;;6.47;4.90;;;6.50;99.90;;;;;;4987480;28;20451;-80
2020/12/31 04:17:23;;;;;;;5.03;4.50;;;6.40;99.90;;;;;;4986665;28;20470;-80
2020/12/31 04:19:49;;;;;;;4.57;4.03;;;6.30;99.90;;;;;;4992460;28;20458;-80
2020/12/31 04:22:15;;;;;;;4.67;4.27;;;6.30;99.90;;;;;;4988869;28;20491;-82
2020/12/31 04:24:42;;;;;;;4.80;4.30;;;6.30;99.90;;;;;;4986062;28;20966;-81
2020/12/31 04:27:08;;;;;;;5.20;4.43;;;6.50;99.90;;;;;;4985667;28;20468;-81
2020/12/31 04:29:34;;;;;;;5.70;4.20;;;6.30;99.90;;;;;;4984843;28;20456;-82
2020/12/31 04:32:00;;;;;;;5.13;4.63;;;6.30;99.90;;;;;;4983349;28;20826;-82
2020/12/31 04:34:26;;;;;;;5.90;5.13;;;6.50;99.90;;;;;;4985645;28;20475;-80
2020/12/31 04:36:52;;;;;;;8.07;4.43;;;6.60;99.90;;;;;;4983529;28;20478;-82
2020/12/31 04:39:19;;;;;;;4.90;4.20;;;6.40;99.90;;;;;;4986216;28;20470;-82
2020/12/31 04:41:45;;;;;;;5.70;4.40;;;6.30;99.90;;;;;;4984613;28;20865;-82
2020/12/31 04:44:14;;;;;;;5.93;5.10;;;6.40;99.90;;;;;;4988754;28;20447;-79
2020/12/31 04:46:41;;;;;;;4.53;4.10;;;6.50;99.90;;;;;;4985638;28;21952;-81
2020/12/31 04:49:19;;;;;;;8.03;4.97;;;6.50;99.90;;;;;;4985145;28;20475;-80
2020/12/31 04:51:48;;;;;;;6.20;4.47;;;6.50;99.90;;;;;;4984645;28;20482;-81
2020/12/31 04:54:14;;;;;;;5.10;4.47;;;6.50;99.90;;;;;;4984918;28;20451;-78
2020/12/31 04:56:41;;;;;;;7.83;4.40;;;6.40;99.90;;;;;;4982830;28;20462;-80
2020/12/31 04:59:07;;;;;;;6.40;4.30;;;6.30;99.90;;;;;;4984137;28;20476;-81
2020/12/31 05:01:34;;;;;;;6.53;4.13;;;6.30;99.90;;;;;;4984846;28;20483;-82
2020/12/31 05:04:00;;;;;;;4.70;4.20;;;6.30;99.90;;;;;;4989199;28;20879;-79
2020/12/31 05:06:27;;;;;;;4.83;4.43;;;6.40;99.90;;;;;;4984702;28;20470;-79
2020/12/31 05:08:54;;;;;;;4.97;4.23;;;6.30;99.90;;;;;;4985581;28;20451;-80
2020/12/31 05:11:20;;;;;;;4.63;4.00;;;6.20;99.90;;;;;;4983935;28;20466;-82
2020/12/31 05:13:49;;;;;;;3.43;3.13;;;6.30;99.90;;;;;;4986586;28;20493;-80
2020/12/31 05:16:28;;;;;;;4.20;3.80;;;6.40;99.90;;;;;;4986154;28;20463;-81
2020/12/31 05:18:58;;;;;;;4.27;3.50;;;6.30;99.90;;;;;;4986815;28;21050;-78
2020/12/31 05:21:24;;;;;;;2.60;2.40;;;6.40;99.90;;;;;;4989338;28;20447;-77
2020/12/31 05:23:50;;;;;;;4.50;2.50;;;6.50;99.90;;;;;;4989484;28;20514;-79
2020/12/31 05:26:34;;;;;;;2.80;2.60;;;6.40;99.90;;;;;;4989174;28;20455;-80
2020/12/31 05:29:01;;;;;;;3.33;2.40;;;6.40;99.90;;;;;;4987017;28;22098;-80
2020/12/31 05:31:27;;;;;;;2.67;2.47;;;6.30;99.90;;;;;;4988388;28;20455;-79
2020/12/31 05:33:54;;;;;;;2.93;1.90;;;6.20;99.90;;;;;;4989036;28;20925;-80
2020/12/31 05:36:25;;;;;;;2.90;2.23;;;6.30;99.90;;;;;;4986258;28;20443;-78
2020/12/31 05:38:54;;;;;;;2.17;2.00;;;6.20;99.90;;;;;;4989445;28;20851;-79
2020/12/31 05:41:31;;;;;;;2.30;2.10;;;6.30;99.90;;;;;;4988217;28;20458;-79
2020/12/31 05:44:00;;;;;;;2.93;2.57;;;6.30;99.90;;;;;;4989260;28;20538;-80
2020/12/31 05:46:27;;;;;;;2.33;1.60;;;6.10;99.90;;;;;;4984535;28;20472;-81
2020/12/31 05:49:13;;;;;;;2.50;1.77;;;6.10;99.90;;;;;;4984422;28;20545;-81
2020/12/31 05:51:40;;;;;;;2.40;1.77;;;6.10;99.90;;;;;;4982541;28;20485;-80
2020/12/31 05:54:14;;;;;;;2.83;2.43;;;6.00;99.90;;;;;;4982743;28;20569;-80
2020/12/31 05:56:43;;;;;;;1.60;1.50;;;6.10;99.90;;;;;;4983055;28;20451;-81
2020/12/31 05:59:24;;;;;;;1.57;1.47;;;6.00;99.90;;;;;;4982923;28;20455;-81
2020/12/31 06:01:58;;;;;;;1.90;1.80;;;6.00;99.90;;;;;;4983426;28;20502;-80
2020/12/31 06:04:30;;;;;;;2.40;2.10;;;6.00;99.90;;;;;;4986207;28;20451;-78
2020/12/31 06:07:01;;;;;;;3.90;2.43;;;6.10;99.90;;;;;;4985796;28;20467;-77
2020/12/31 06:09:29;;;;;;;2.83;2.50;;;6.00;99.90;;;;;;4988609;28;20451;-79
2020/12/31 06:12:13;;;;;;;3.10;2.80;;;6.30;99.90;;;;;;4985563;28;20482;-78
2020/12/31 06:14:43;;;;;;;2.53;2.33;;;6.10;99.90;;;;;;4984554;28;20470;-80
2020/12/31 06:17:19;;;;;;;3.27;2.97;;;6.00;99.90;;;;;;4988634;28;20466;-78
2020/12/31 06:19:51;;;;;;;3.13;2.40;;;6.10;99.90;;;;;;4988428;28;20458;-78
2020/12/31 06:22:34;;;;;;;4.23;3.80;;;6.00;99.90;;;;;;4992935;28;20495;-78
2020/12/31 06:25:05;;;;;;;5.43;4.10;;;6.00;99.90;;;;;;4994548;28;20467;-79
2020/12/31 06:27:39;;;;;;;3.90;2.60;;;5.80;99.90;;;;;;5002210;28;20452;-79
2020/12/31 06:30:05;;;;;;;4.30;3.17;;;5.70;99.90;;;;;;5003819;28;20442;-78
2020/12/31 06:32:36;;;;;;;4.20;2.90;;;5.50;99.90;;;;;;5003947;28;20499;-78
2020/12/31 06:35:08;;;;;;;4.20;3.33;;;5.60;99.90;;;;;;5001961;28;20455;-80
2020/12/31 06:37:35;;;;;;;4.03;3.00;;;5.50;99.90;;;;;;5001852;28;20459;-80
2020/12/31 06:40:23;;;;;;;3.63;3.13;;;5.50;99.90;;;;;;5001549;28;20470;-79
2020/12/31 06:43:10;;;;;;;3.83;3.10;;;5.40;99.90;;;;;;5000669;28;20478;-77
2020/12/31 06:45:41;;;;;;;4.40;4.00;;;5.40;99.90;;;;;;4996440;28;20451;-80
2020/12/31 06:48:26;;;;;;;3.50;2.90;;;5.50;99.90;;;;;;4994773;28;20448;-77
2020/12/31 06:50:58;;;;;;;4.20;3.43;;;5.50;99.90;;;;;;4996553;28;20466;-80
2020/12/31 06:53:46;;;;;;;3.57;3.10;;;5.40;99.90;;;;;;4989601;28;20489;-80
2020/12/31 06:56:36;;;;;;;6.30;3.30;;;5.40;99.90;;;;;;4985733;28;20962;-78
2020/12/31 06:59:30;;;;;;;5.00;3.57;;;5.50;99.90;;;;;;4986131;28;20475;-81
2020/12/31 07:02:00;;;;;;;2.87;2.67;;;5.20;99.90;;;;;;4985937;28;20866;-81
2020/12/31 07:04:32;;;;;;;3.53;3.20;;;5.30;99.90;;;;;;4999858;28;20514;-80
2020/12/31 07:07:01;;;;;;;3.20;2.90;;;5.40;99.90;;;;;;4984670;28;20506;-80
2020/12/31 07:09:31;;;;;;;3.23;2.93;;;5.40;99.90;;;;;;4983680;28;21027;-80
2020/12/31 07:11:59;;;;;;;4.30;3.70;;;5.50;99.90;;;;;;4984602;28;20483;-81
2020/12/31 07:14:27;;;;;;;5.40;3.03;;;5.60;99.90;;;;;;4983631;28;20841;-80
2020/12/31 07:17:05;;;;;;;2.93;2.57;;;5.60;99.90;;;;;;4984509;28;21842;-81
2020/12/31 07:19:45;;;;;;;3.50;3.20;;;5.60;99.90;;;;;;5001168;28;20462;-79
2020/12/31 07:22:11;;;;;;;5.10;3.67;;;5.20;99.90;;;;;;4984144;28;20894;-80
2020/12/31 07:24:50;;;;;;;5.20;3.53;;;5.50;99.90;;;;;;4983091;28;20454;-80
2020/12/31 07:27:20;;;;;;;3.80;3.00;;;5.60;99.90;;;;;;4984409;28;20460;-80
2020/12/31 07:30:19;;;;;;;5.10;3.57;;;5.50;99.90;;;;;;4984011;28;20466;-79
2020/12/31 07:33:01;;;;;;;4.03;3.33;;;5.50;99.90;;;;;;4979289;28;20481;-78
2020/12/31 07:35:41;;;;;;;4.90;3.83;;;5.30;99.90;;;;;;4982779;28;20467;-79
2020/12/31 07:38:12;;;;;;;4.63;3.97;;;5.30;99.90;;;;;;4984131;28;20447;-79
2020/12/31 07:40:43;;;;;;;6.73;4.47;;;5.20;99.90;;;;;;4984188;28;20460;-78
2020/12/31 07:43:25;;;;;;;4.80;4.03;;;5.20;99.90;;;;;;4982363;28;20587;-80
2020/12/31 07:45:53;;;;;;;4.37;4.07;;;5.20;99.90;;;;;;4983082;28;21071;-80
2020/12/31 07:48:21;;;;;;;5.80;4.60;;;5.30;99.90;;;;;;4985773;28;21101;-81
2020/12/31 07:50:59;;;;;;;5.70;4.20;;;5.40;99.90;;;;;;4986763;28;20467;-80
2020/12/31 07:53:26;;;;;;;4.80;4.40;;;5.30;99.90;;;;;;4982781;28;20470;-79
2020/12/31 07:55:53;;;;;;;6.17;5.43;;;5.10;99.90;;;;;;4984539;28;20970;-81
2020/12/31 07:58:21;;;;;;;5.43;4.60;;;5.40;99.90;;;;;;4985205;28;20455;-81
2020/12/31 08:01:02;;;;;;;7.10;5.50;;;5.20;99.90;;;;;;4984308;28;20447;-80
2020/12/31 08:03:28;;;;;;;8.47;4.80;;;5.40;99.90;;;;;;4984595;28;20498;-79
2020/12/31 08:05:59;;;;;;;4.80;4.33;;;5.30;99.90;;;;;;4983601;28;20455;-82
2020/12/31 08:08:25;;;;;;;4.03;3.03;;;5.30;99.90;;;;;;4983996;28;20460;-79
2020/12/31 08:10:52;;;;;;;7.07;5.40;;;5.30;99.90;;;;;;4986146;28;20463;-81
2020/12/31 08:13:18;;;;;;;5.83;5.00;;;5.20;99.90;;;;;;4986179;28;20467;-80
2020/12/31 08:15:52;;;;;;;6.17;4.93;;;5.20;99.90;;;;;;4983186;28;20451;-80
2020/12/31 08:18:19;;;;;;;21.33;5.30;;;5.20;99.90;;;;;;4986160;28;20456;-81
2020/12/31 08:20:47;;;;;;;6.57;5.07;;;5.30;99.90;;;;;;4985349;28;20451;-80
2020/12/31 08:23:17;;;;;;;6.83;5.47;;;5.30;99.90;;;;;;4986443;28;20475;-81
2020/12/31 08:25:46;;;;;;;6.37;5.77;;;5.30;99.90;;;;;;4986036;28;20473;-80
2020/12/31 08:28:17;;;;;;;5.50;4.90;;;5.20;99.90;;;;;;4985907;28;20538;-80
2020/12/31 08:30:44;;;;;;;8.47;5.37;;;5.30;99.90;;;;;;4984579;28;20471;-81
2020/12/31 08:33:11;;;;;;;6.43;5.23;;;5.40;99.90;;;;;;4999542;28;20501;-79
2020/12/31 08:35:38;;;;;;;6.50;5.13;;;5.40;99.90;;;;;;4986616;28;20455;-79
2020/12/31 08:38:09;;;;;;;7.77;5.10;;;5.50;99.90;;;;;;4986831;28;20466;-80
2020/12/31 08:40:46;;;;;;;6.10;5.10;;;5.40;99.90;;;;;;4984662;28;20486;-80
2020/12/31 08:43:19;;;;;;;9.27;6.30;;;5.40;99.90;;;;;;4986931;28;20509;-79
2020/12/31 08:45:46;;;;;;;8.27;5.07;;;5.30;99.90;;;;;;4996084;28;20460;-77
2020/12/31 08:48:23;;;;;;;6.20;4.93;;;5.10;99.90;;;;;;4986907;28;20451;-81
2020/12/31 08:51:06;;;;;;;6.03;5.00;;;5.30;99.90;;;;;;4987218;28;20458;-82
2020/12/31 08:53:58;;;;;;;6.30;5.17;;;5.20;99.90;;;;;;4987872;28;20479;-81
2020/12/31 08:56:26;;;;;;;5.63;5.10;;;5.30;99.90;;;;;;4988110;28;20502;-80
2020/12/31 08:59:09;;;;;;;7.83;5.27;;;5.30;99.90;;;;;;4990055;28;20455;-78
2020/12/31 09:01:36;;;;;;;4.90;4.43;;;5.40;99.90;;;;;;4988819;28;20451;-79
2020/12/31 09:04:09;;;;;;;6.37;4.60;;;5.30;99.90;;;;;;4992991;28;20486;-79
2020/12/31 09:06:42;;;;;;;5.30;4.80;;;5.40;99.90;;;;;;4991808;28;20538;-79
2020/12/31 09:09:16;;;;;;;6.67;5.10;;;5.60;99.90;;;;;;4991188;28;20542;-80
2020/12/31 09:11:59;;;;;;;5.10;4.50;;;5.40;99.90;;;;;;4984850;28;20473;-80
2020/12/31 09:14:26;;;;;;;6.63;4.70;;;5.50;99.90;;;;;;4987167;28;20462;-79
2020/12/31 09:16:53;;;;;;;5.33;4.40;;;5.60;99.90;;;;;;4998750;28;20527;-79
2020/12/31 09:19:19;;;;;;;5.27;4.70;;;5.60;99.90;;;;;;4995194;28;20553;-81
2020/12/31 09:21:46;;;;;;;6.37;4.70;;;5.60;99.90;;;;;;4987446;28;20565;-79
2020/12/31 09:24:23;;;;;;;6.13;4.57;;;5.60;99.90;;;;;;4985552;28;20540;-78
2020/12/31 09:26:59;;;;;;;9.17;4.90;;;5.60;99.90;;;;;;4986783;28;20443;-79
2020/12/31 09:29:29;;;;;;;5.50;4.10;;;5.60;99.90;;;;;;4983843;28;20447;-81
2020/12/31 09:31:56;;;;;;;4.80;4.30;;;5.50;99.90;;;;;;4985463;28;20493;-78
2020/12/31 09:34:22;;;;;;;5.47;4.33;;;5.50;99.90;;;;;;4984438;28;20879;-80
2020/12/31 09:36:49;;;;;;;4.53;4.10;;;5.40;99.90;;;;;;4984535;28;20962;-79
2020/12/31 09:39:16;;;;;;;7.07;5.27;;;5.50;99.90;;;;;;4982453;28;20465;-78
2020/12/31 09:41:42;;;;;;;6.23;3.53;;;5.40;99.90;;;;;;4983328;28;20483;-78
2020/12/31 09:44:08;;;;;;;5.00;4.50;;;5.40;99.90;;;;;;4983743;28;21230;-78
2020/12/31 09:46:34;;;;;;;4.60;4.20;;;5.40;99.90;;;;;;4985440;28;20459;-81
2020/12/31 09:49:01;;;;;;;5.00;3.93;;;5.50;99.90;;;;;;4985651;28;20475;-78
2020/12/31 09:51:27;;;;;;;4.53;3.70;;;5.40;99.90;;;;;;4985534;28;21161;-81
2020/12/31 09:53:53;;;;;;;6.20;3.70;;;5.30;99.90;;;;;;4984266;28;20515;-81
2020/12/31 09:56:20;;;;;;;5.03;3.73;;;5.40;99.90;;;;;;4983843;28;20546;-81
2020/12/31 09:58:46;;;;;;;3.40;2.83;;;5.20;99.90;;;;;;4985216;28;20846;-78
2020/12/31 10:01:14;;;;;;;3.83;3.43;;;5.20;99.90;;;;;;4987201;28;20458;-77
2020/12/31 10:03:41;;;;;;;4.00;3.13;;;5.20;99.90;;;;;;4990312;28;20482;-80
2020/12/31 10:06:10;;;;;;;6.20;3.80;;;5.20;99.90;;;;;;4987812;28;20474;-80
2020/12/31 10:08:36;;;;;;;3.70;3.40;;;5.20;99.90;;;;;;4988802;28;20451;-79
2020/12/31 10:11:05;;;;;;;4.43;4.03;;;5.20;99.90;;;;;;4987304;28;20460;-79
2020/12/31 10:13:31;;;;;;;6.53;5.10;;;5.10;99.90;;;;;;4985119;28;20483;-80
2020/12/31 10:15:59;;;;;;;4.60;4.10;;;4.90;99.90;;;;;;4983457;28;20948;-81
2020/12/31 10:18:25;;;;;;;4.60;4.20;;;5.10;99.90;;;;;;4986315;28;20978;-80
2020/12/31 10:20:52;;;;;;;4.80;4.23;;;5.00;99.90;;;;;;4988043;28;20459;-80
2020/12/31 10:23:18;;;;;;;4.13;3.53;;;5.00;99.90;;;;;;4988626;28;20483;-80
2020/12/31 10:25:50;;;;;;;3.70;2.67;;;5.00;99.90;;;;;;4986633;28;20463;-80
2020/12/31 10:28:21;;;;;;;4.53;4.13;;;5.00;99.90;;;;;;4988170;28;20470;-81
2020/12/31 10:30:48;;;;;;;4.77;3.30;;;4.70;99.90;;;;;;4990503;28;20523;-79
2020/12/31 10:33:15;;;;;;;4.30;3.77;;;4.70;99.90;;;;;;4995533;28;20470;-82
2020/12/31 10:35:42;;;;;;;5.17;3.97;;;4.60;99.90;;;;;;4991625;28;20466;-82
2020/12/31 10:38:08;;;;;;;4.23;3.83;;;4.60;99.90;;;;;;4990675;28;20459;-77
2020/12/31 10:40:34;;;;;;;2.97;2.67;;;4.70;99.90;;;;;;4987631;28;20461;-80
2020/12/31 10:43:00;;;;;;;5.33;4.50;;;4.50;99.90;;;;;;4989077;28;20487;-80
2020/12/31 10:45:27;;;;;;;6.07;4.43;;;4.40;99.90;;;;;;4987614;28;20458;-81
2020/12/31 10:47:54;;;;;;;5.30;4.13;;;4.30;99.90;;;;;;4987605;28;20459;-83
2020/12/31 10:50:20;;;;;;;3.63;3.30;;;4.30;99.90;;;;;;4990844;28;20458;-81
2020/12/31 10:52:46;;;;;;;4.53;3.77;;;4.20;99.90;;;;;;4989312;28;20482;-81
2020/12/31 10:55:12;;;;;;;4.87;3.40;;;4.10;99.90;;;;;;4988426;28;20455;-80
2020/12/31 10:57:38;;;;;;;4.80;3.90;;;4.30;99.90;;;;;;4986187;28;20459;-79
2020/12/31 11:00:04;;;;;;;4.03;3.63;;;4.20;99.90;;;;;;4987808;28;20792;-79
2020/12/31 11:02:31;;;;;;;4.30;3.70;;;4.30;99.90;;;;;;4988031;28;20487;-82
2020/12/31 11:04:57;;;;;;;3.77;3.43;;;4.30;99.90;;;;;;4987687;28;20513;-79
2020/12/31 11:07:23;;;;;;;5.27;3.93;;;4.20;99.90;;;;;;4989603;28;20459;-81
2020/12/31 11:09:49;;;;;;;3.33;3.03;;;4.20;99.90;;;;;;4988075;28;20459;-79
2020/12/31 11:12:16;;;;;;;3.87;3.00;;;4.30;99.90;;;;;;4986009;28;20917;-80
2020/12/31 11:14:42;;;;;;;4.80;3.47;;;4.80;99.90;;;;;;4985683;28;20459;-79
2020/12/31 11:17:08;;;;;;;4.90;4.40;;;4.90;99.90;;;;;;4989801;28;20463;-78
2020/12/31 11:19:34;;;;;;;2.67;2.47;;;4.90;99.90;;;;;;4987471;28;20493;-78
2020/12/31 11:22:00;;;;;;;5.50;4.00;;;5.00;99.90;;;;;;4985655;28;21318;-79
2020/12/31 11:24:27;;;;;;;4.43;3.77;;;5.00;99.90;;;;;;4988982;28;20825;-80
2020/12/31 11:26:53;;;;;;;6.30;4.00;;;5.00;99.90;;;;;;4988422;28;20490;-81
2020/12/31 11:29:19;;;;;;;4.80;3.83;;;5.20;99.90;;;;;;4987473;28;20444;-81
2020/12/31 11:31:46;;;;;;;4.60;3.83;;;5.20;99.90;;;;;;4987809;28;20470;-81
2020/12/31 11:34:24;;;;;;;5.63;4.40;;;5.20;99.90;;;;;;4988155;28;20987;-80
2020/12/31 11:36:50;;;;;;;6.43;4.30;;;5.50;99.90;;;;;;4988365;28;20455;-79
2020/12/31 11:39:17;;;;;;;4.40;3.53;;;5.40;99.90;;;;;;4987225;28;20459;-80
2020/12/31 11:41:43;;;;;;;7.47;4.60;;;5.50;99.90;;;;;;4987563;28;20577;-82
2020/12/31 11:44:09;;;;;;;4.07;3.53;;;5.40;99.90;;;;;;4986126;28;20519;-79
2020/12/31 11:46:35;;;;;;;3.27;2.97;;;5.50;99.90;;;;;;4990661;28;20454;-78
2020/12/31 11:49:01;;;;;;;6.30;3.50;;;5.30;99.90;;;;;;4993266;28;20447;-79
2020/12/31 11:51:28;;;;;;;2.87;2.63;;;5.40;99.90;;;;;;4989311;28;20458;-78
2020/12/31 11:53:57;;;;;;;2.90;2.70;;;5.50;99.90;;;;;;4989870;28;20451;-82
2020/12/31 11:56:24;;;;;;;3.10;2.80;;;5.70;99.90;;;;;;4988103;28;20470;-77
2020/12/31 11:58:52;;;;;;;3.37;2.33;;;5.70;99.90;;;;;;4984901;28;20478;-80
2020/12/31 12:01:21;;;;;;;2.47;2.00;;;5.50;99.90;;;;;;4985904;28;20455;-81
2020/12/31 12:03:47;;;;;;;2.27;2.17;;;5.40;99.90;;;;;;4987277;28;20865;-81
2020/12/31 12:06:13;;;;;;;3.90;2.73;;;5.50;99.90;;;;;;4992989;28;20467;-79
2020/12/31 12:08:40;;;;;;;3.00;2.80;;;5.50;99.90;;;;;;4998543;28;20529;-79
2020/12/31 12:11:06;;;;;;;3.80;3.47;;;5.40;99.90;;;;;;4997513;28;20449;-80
2020/12/31 12:13:33;;;;;;;3.50;3.13;;;5.50;99.90;;;;;;4992955;28;20498;-79
2020/12/31 12:15:59;;;;;;;3.50;2.60;;;5.30;99.90;;;;;;4989225;28;20447;-79
2020/12/31 12:18:26;;;;;;;3.30;2.80;;;5.30;99.90;;;;;;4997477;28;20458;-77
2020/12/31 12:20:59;;;;;;;3.00;2.73;;;5.50;99.90;;;;;;4992233;28;20490;-77
2020/12/31 12:23:26;;;;;;;3.50;2.47;;;5.60;99.90;;;;;;4997504;28;20489;-78
2020/12/31 12:25:52;;;;;;;3.20;2.90;;;5.40;99.90;;;;;;4998326;28;20451;-78
2020/12/31 12:28:18;;;;;;;2.80;2.60;;;5.30;99.90;;;;;;4990319;28;20454;-80
2020/12/31 12:30:44;;;;;;;3.00;2.70;;;5.30;99.90;;;;;;4989039;28;20484;-78
2020/12/31 12:33:10;;;;;;;2.63;2.43;;;5.40;99.90;;;;;;4988785;28;20490;-81
2020/12/31 12:35:37;;;;;;;2.40;2.20;;;5.70;99.90;;;;;;4986890;28;20464;-79
2020/12/31 12:38:03;;;;;;;3.10;2.73;;;5.70;99.90;;;;;;4987205;28;20574;-80
2020/12/31 12:40:29;;;;;;;4.07;2.60;;;5.70;99.90;;;;;;4987744;28;20447;-79
2020/12/31 12:42:55;;;;;;;2.40;2.20;;;5.50;99.90;;;;;;4984980;28;20483;-80
2020/12/31 12:45:21;;;;;;;2.60;2.40;;;5.30;99.90;;;;;;4985980;28;20455;-80
2020/12/31 12:47:47;;;;;;;3.00;2.70;;;5.40;99.90;;;;;;4985216;28;20453;-81
2020/12/31 12:50:15;;;;;;;2.43;2.23;;;5.60;99.90;;;;;;4986517;28;20871;-81
2020/12/31 12:52:41;;;;;;;2.10;1.90;;;5.60;99.90;;;;;;4987891;28;20498;-80
2020/12/31 12:55:08;;;;;;;4.57;2.70;;;5.70;99.90;;;;;;4987426;28;21789;-81
2020/12/31 12:57:34;;;;;;;2.07;1.97;;;5.60;99.90;;;;;;4986598;28;20457;-79
2020/12/31 13:00:00;;;;;;;2.70;2.50;;;5.80;99.90;;;;;;4985896;28;20501;-78
2020/12/31 13:02:26;;;;;;;2.00;1.90;;;6.00;99.90;;;;;;4982441;28;20505;-80
2020/12/31 13:04:53;;;;;;;2.90;2.30;;;5.80;99.90;;;;;;4988817;28;20455;-81